To NAV CANADA Home Page Login to a new session Search on AWWS site Disclaimer Vers la page française équivalente Tips FAQ What's new on the site To the Forecasts and Observations / NOTAM section To "File a Flight Plan" website Publications and other links Update of the User's profile FIC Telephone Numbers My Weather Data Folder Route Weather Data Regional Weather Data Local Weather Data To the Forecasts and Observations / NOTAM section
Request Generated 10/02/2022 at 18:26:11 UTC . Weather information available at that time is displayed.

METAR/TAF

WINDSOR/ON    (show WxCam)

CYQG - METAR not available

TAF CYQG 021740Z NIL
RMK NO OBS. NXT FCST BY 030000Z

LONDON/ON    

METAR CYXU 021800Z 06010KT 010V090 15SM FEW270 16/M03 A3032 RMK CI1 CI TR SLP272=
METAR CYXU 021700Z 05013G20KT 15SM FEW270 14/M01 A3032 RMK CI1 CI TR SLP274=
METAR CYXU 021600Z 03014KT 15SM FEW270 13/02 A3033 RMK CI1 CI TR SLP275=

TAF CYXU 021740Z 0218/0318 05010G20KT P6SM SKC
BECMG 0218/0220 05012KT
BECMG 0222/0224 05008KT
RMK NXT FCST BY 030000Z=

SARNIA (CHRIS HADFIELD)/ON    (show WxCam)

METAR CYZR 021800Z AUTO 02016G22KT 9SM CLR 15/07 A3035 RMK SLP280=
METAR CYZR 021700Z AUTO 03015G20KT 9SM CLR 14/08 A3035 RMK SLP281=
METAR CYZR 021600Z AUTO 03011G17KT 9SM CLR 13/07 A3035 RMK SLP282=

TAF CYZR 021340Z 0214/0302 05012KT P6SM SKC
BECMG 0222/0224 02008KT
BECMG 0300/0302 07008KT
RMK FCST BASED ON AUTO OBS. NXT FCST BY 022000Z=

KITCHENER/WATERLOO/ON    (show WxCam)

METAR CYKF 021800Z AUTO 06006G19KT 360V070 9SM CLR 14/M03 A3034 RMK SLP279=
METAR CYKF 021700Z AUTO 07014G22KT 9SM CLR 14/M04 A3034 RMK SLP279=
METAR CYKF 021600Z AUTO 06014G21KT 350V080 9SM CLR 12/M03 A3034 RMK SLP281=

TAF CYKF 021340Z 0214/0302 04010G20KT P6SM FEW030
BECMG 0216/0218 05012KT
BECMG 0222/0224 04008KT
RMK FCST BASED ON AUTO OBS. NXT FCST BY 022000Z

HAMILTON/ON    

METAR CYHM 021800Z 05017G24KT 15SM FEW030 FEW250 12/03 A3033 RMK SC1CI1 SC TR CI TR SLP275=
METAR CYHM 021700Z 04014G25KT 15SM FEW030 FEW250 11/04 A3033 RMK SC1CI1 SC TR CI TR SLP277=
METAR CYHM 021600Z 03019G25KT 15SM FEW022 FEW250 10/03 A3034 RMK SC1CI1 CI TR SLP278=

TAF CYHM 021740Z 0218/0318 04015G25KT P6SM FEW020
BECMG 0222/0224 04008KT
RMK NXT FCST BY 030000Z

TORONTO/LESTER B. PEARSON INTL/ON    

METAR CYYZ 021800Z 05009G18KT 350V070 15SM FEW250 15/M01 A3034 RMK CI1 CI TR SLP280=
METAR CYYZ 021700Z 01010G20KT 360V060 15SM FEW250 13/M01 A3035 RMK CI1 CI TR SLP283=
METAR CYYZ 021600Z 06011G17KT 15SM FEW250 12/M02 A3036 RMK CI1 CI TR SLP286=

TAF CYYZ 021740Z 0218/0324 04012KT P6SM FEW250
BECMG 0222/0224 04008KT
FM031800 07008KT P6SM BKN200
FM032200 32008KT P6SM FEW180
RMK NXT FCST BY 022100Z
Your time UTC time
Weather data provided by Environment Canada and NAV CANADA